KMGW

Morgantown Municipal-Walter L Bill Hart Field Airport

Morgantown, West Virginia, USA
KMGW 210520Z 2106/2206 14009KT P6SM BKN100 FM211600 14010G20KT P6SM VCSH BKN040 FM220000 11009KT P6SM BKN080
Issued Valid From Valid To
Jul-21 @ 05:20 UTC
(5 hours ago)
Jul-21 @ 06:00 UTC
(4 hours ago)
Jul-22 @ 06:00 UTC
(in 20 hours)
Jul-21 @ 06:00 to Jul-21 @ 16:00
KMGW 210520Z 2106/2206 14009KT P6SM BKN100
Wind Visibility Clouds
140° at 9 knots Greater than 6 miles
  • Broken at 10,000' AGL
From Jul-21 @ 16:00 to Jul-22 @ 00:00
FM211600 14010G20KT P6SM VCSH BKN040
Wind Visibility Clouds
140° at 10 knots
 Gusting to 20 knots
Greater than 6 miles
  • Broken at 4,000' AGL
From Jul-22 @ 00:00 to Jul-22 @ 06:00
FM220000 11009KT P6SM BKN080
Wind Visibility Clouds
110° at 9 knots Greater than 6 miles
  • Broken at 8,000' AGL
KMGW 210520Z 2106/2206 14009KT P6SM BKN100 FM211600 14010G20KT P6SM VCSH BKN040 FM220000 11009KT P6SM BKN080
Issued Jul-21 @ 05:20 UTC
(5 hours ago)
Valid From Jul-21 @ 06:00 UTC
(4 hours ago)
Valid To Jul-22 @ 06:00 UTC
(in 20 hours)
Jul-21 @ 06:00 - Jul-21 @ 16:00
Wind Visibility
140° at 9 knots Greater than 6 miles
Clouds
  • Broken at 10,000' AGL
From Jul-21 @ 16:00 - Jul-22 @ 00:00
Wind Visibility
140° at 10 knots
 Gusting to 20 knots
Greater than 6 miles
Clouds
  • Broken at 4,000' AGL
From Jul-22 @ 00:00 - Jul-22 @ 06:00
Wind Visibility
110° at 9 knots Greater than 6 miles
Clouds
  • Broken at 8,000' AGL